This is the latest recevied weather packets stored in our database for station/object N7IGG. If no packets are shown the sender has not sent any weather packets the latest 10 day(s).
| Time | Temp. | Humidity | Pressure | Rain* | Wind** | Luminosity | Snow |
|---|---|---|---|---|---|---|---|
| 1777837621 | 18.89° C | 69% | 1013 hPa | 0 mm | - | 669 W/m² | - |
| 1777837317 | 18.33° C | 71% | 1013.2 hPa | 0 mm | - | 689 W/m² | - |
| 1777837014 | 18.33° C | 73% | 1013 hPa | 0 mm | - | 701 W/m² | - |
| 1777836709 | 18.33° C | 73% | 1013.3 hPa | 0 mm | - | 657 W/m² | - |
| 1777836405 | 17.22° C | 75% | 1013.3 hPa | 0 mm | - | 613 W/m² | - |
| 1777836101 | 16.67° C | 74% | 1013.3 hPa | 0 mm | - | 71 W/m² | - |
| 1777835798 | 17.78° C | 74% | 1013.2 hPa | 0 mm | - | 629 W/m² | - |
| 1777835495 | 17.78° C | 74% | 1013.2 hPa | 0 mm | - | 617 W/m² | - |
| 1777835192 | 17.78° C | 75% | 1013.5 hPa | 0 mm | - | 642 W/m² | - |
| 1777834888 | 17.22° C | 75% | 1013.6 hPa | 0 mm | - | 608 W/m² | - |
| 1777834585 | 16.67° C | 76% | 1013.5 hPa | 0 mm | - | 614 W/m² | - |
| 1777834280 | 16.67° C | 76% | 1013.6 hPa | 0 mm | - | 84 W/m² | - |
| 1777833976 | 16.11° C | 75% | 1013.8 hPa | 0 mm | - | 192 W/m² | - |
| 1777833673 | 17.22° C | 74% | 1013.7 hPa | 0 mm | - | 64 W/m² | - |
| 1777833369 | 17.22° C | 74% | 1013.8 hPa | 0 mm | - | 582 W/m² | - |
| 1777833066 | 17.22° C | 71% | 1013.8 hPa | 0 mm | - | 67 W/m² | - |
| 1777832765 | 18.89° C | 65% | 1013.7 hPa | 0 mm | - | 67 W/m² | - |
| 1777832463 | 20.56° C | 59% | 1013.7 hPa | 0 mm | - | 132 W/m² | - |
| 1777832159 | 20° C | 60% | 1013.8 hPa | 0 mm | - | 65 W/m² | - |
| 1777831855 | 20° C | 61% | 1013.8 hPa | 0 mm | - | 79 W/m² | - |
| 1777831553 | 20° C | 62% | 1013.9 hPa | 0 mm | - | 51 W/m² | - |
| 1777831250 | 19.44° C | 65% | 1013.9 hPa | 0 mm | - | 50 W/m² | - |
| 1777830947 | 18.33° C | 70% | 1014 hPa | 0 mm | - | 51 W/m² | - |
| 1777830645 | 17.78° C | 72% | 1013.9 hPa | 0 mm | - | 51 W/m² | - |
| 1777830342 | 17.22° C | 76% | 1014 hPa | 0 mm | - | 50 W/m² | - |
* Rain latest hour (hover to see other rain measurements)
** Current wind speed in m/s (hover to see current wind gust speed)